This is the latest recevied weather packets stored in our database for station/object CW79215. If no packets are shown the sender has not sent any weather packets the latest 10 day(s).
| Time | Temp. | Humidity | Pressure | Rain* | Wind** | Luminosity | Snow |
|---|---|---|---|---|---|---|---|
| 1788294034 | 16.11° C | 65% | 1031.8 hPa | - | - | - | - |
| 1788293134 | 16.67° C | 65% | 1031.8 hPa | - | - | - | - |
| 1788292234 | 16.67° C | 64% | 1031.8 hPa | - | - | - | - |
| 1788291334 | 17.22° C | 64% | 1031.8 hPa | - | - | - | - |
| 1788290434 | 17.78° C | 60% | 1031.6 hPa | - | - | - | - |
| 1788289534 | 18.33° C | 61% | 1031.6 hPa | - | - | - | - |
| 1788288634 | 18.33° C | 60% | 1031.4 hPa | - | - | - | - |
| 1788287734 | 18.89° C | 59% | 1031.3 hPa | - | - | - | - |
| 1788286834 | 19.44° C | 56% | 1031.1 hPa | - | - | - | - |
| 1788285933 | 19.44° C | 55% | 1031 hPa | - | - | - | - |
| 1788285034 | 20° C | 52% | 1030.9 hPa | - | - | - | - |
| 1788284134 | 20.56° C | 51% | 1030.9 hPa | - | - | - | - |
| 1788283234 | 21.11° C | 49% | 1030.8 hPa | - | - | - | - |
| 1788282333 | 21.67° C | 46% | 1030.9 hPa | - | - | - | - |
| 1788281434 | 21.67° C | 42% | 1030.9 hPa | - | - | - | - |
| 1788280533 | 22.22° C | 42% | 1030.9 hPa | - | - | - | - |
| 1788279633 | 23.33° C | 38% | 1030.8 hPa | - | - | - | - |
| 1788278733 | 23.89° C | 35% | 1030.8 hPa | - | - | - | - |
| 1788277833 | 23.89° C | 38% | 1030.9 hPa | - | - | - | - |
| 1788276946 | 23.89° C | 39% | 1030.8 hPa | - | - | - | - |
| 1788276033 | 23.89° C | 37% | 1031 hPa | - | - | - | - |
| 1788275133 | 23.33° C | 41% | 1031 hPa | - | - | - | - |
| 1788274234 | 23.89° C | 38% | 1031 hPa | - | - | - | - |
| 1788273335 | 23.33° C | 37% | 1031 hPa | - | - | - | - |
| 1788272445 | 23.33° C | 37% | 1030.9 hPa | - | - | - | - |
* Rain since midnight (hover to see other rain measurements)
** Current wind speed in m/s (hover to see current wind gust speed)